This is the latest recevied weather packets stored in our database for station/object KE4EST. If no packets are shown the sender has not sent any weather packets the latest 10 day(s).
| Time | Temp. | Humidity | Pressure | Rain* | Wind** | Luminosity | Snow |
|---|---|---|---|---|---|---|---|
| 1778110845 | 16.67° C | 99% | 1014.7 hPa | 7.11 mm | - | 3 W/m² | - |
| 1778110542 | 16.67° C | 99% | 1014.1 hPa | 6.1 mm | - | 3 W/m² | - |
| 1778110239 | 16.67° C | 99% | 1014.2 hPa | 0 mm | - | 1 W/m² | - |
| 1778109935 | 16.67° C | 99% | 1014.2 hPa | 0 mm | - | 1 W/m² | - |
| 1778109630 | 16.67° C | 99% | 1013.8 hPa | 0 mm | - | 2 W/m² | - |
| 1778109328 | 16.67° C | 99% | 1013.1 hPa | 4.83 mm | - | 11 W/m² | - |
| 1778109026 | 16.67° C | 99% | 1013 hPa | 6.6 mm | - | 29 W/m² | - |
| 1778108722 | 16.67° C | 99% | 1013.7 hPa | 3.05 mm | - | 13 W/m² | - |
| 1778108420 | 16.67° C | 99% | 1014.3 hPa | 4.32 mm | - | 6 W/m² | - |
| 1778108116 | 16.67° C | 99% | 1013.6 hPa | 7.87 mm | - | 14 W/m² | - |
| 1778107813 | 16.67° C | 99% | 1014.6 hPa | 4.83 mm | - | 3 W/m² | - |
| 1778107510 | 16.67° C | 99% | 1014.4 hPa | 1.27 mm | - | 4 W/m² | - |
| 1778107206 | 17.22° C | 99% | 1013.6 hPa | 1.27 mm | - | 5 W/m² | - |
| 1778106902 | 17.22° C | 99% | 1013.7 hPa | 0 mm | - | 11 W/m² | - |
| 1778106593 | 17.22° C | 99% | 1013.5 hPa | 0 mm | - | 19 W/m² | - |
| 1778106290 | 17.22° C | 99% | 1013.6 hPa | 0 mm | - | 26 W/m² | - |
| 1778105987 | 17.22° C | 99% | 1013.8 hPa | 0 mm | - | 29 W/m² | - |
| 1778105684 | 17.78° C | 99% | 1013.9 hPa | 1.78 mm | - | 32 W/m² | - |
| 1778105382 | 17.78° C | 99% | 1013.8 hPa | 3.56 mm | - | 44 W/m² | - |
| 1778105077 | 17.78° C | 99% | 1014.3 hPa | 1.78 mm | - | 25 W/m² | - |
| 1778104773 | 17.78° C | 99% | 1014.6 hPa | 0 mm | - | 6 W/m² | - |
| 1778104470 | 17.78° C | 99% | 1013.9 hPa | 0 mm | - | 8 W/m² | - |
| 1778104166 | 17.78° C | 99% | 1013.4 hPa | 0 mm | - | 22 W/m² | - |
| 1778103863 | 17.78° C | 99% | 1013.8 hPa | 0 mm | - | 18 W/m² | - |
| 1778103561 | 18.33° C | 99% | 1013.7 hPa | 0 mm | - | 18 W/m² | - |
* Rain latest hour (hover to see other rain measurements)
** Current wind speed in m/s (hover to see current wind gust speed)